createdAt,value
2019-04-24T00:01:51.053Z,13.80
2019-04-24T00:15:55.049Z,13.70
2019-04-24T00:22:07.225Z,13.70
2019-04-24T00:24:39.578Z,13.60
2019-04-24T00:27:18.571Z,13.60
2019-04-24T00:32:50.105Z,13.60
2019-04-24T00:35:31.989Z,13.60
2019-04-24T00:38:31.116Z,13.60
2019-04-24T00:41:11.631Z,13.60
2019-04-24T00:46:20.029Z,13.50
2019-04-24T00:54:24.267Z,13.40
2019-04-24T00:57:20.360Z,13.50
2019-04-24T01:02:31.943Z,13.50
2019-04-24T01:08:24.083Z,13.50
2019-04-24T01:11:24.456Z,13.50
2019-04-24T01:17:08.102Z,13.50
2019-04-24T01:19:46.728Z,13.60
2019-04-24T01:22:32.879Z,13.60
2019-04-24T01:25:23.454Z,13.60
2019-04-24T01:28:04.388Z,13.60
2019-04-24T01:35:48.915Z,13.50
2019-04-24T01:38:22.987Z,13.50
2019-04-24T01:40:56.222Z,13.50
2019-04-24T02:06:28.723Z,13.20
2019-04-24T02:09:25.751Z,13.20
2019-04-24T02:11:44.988Z,13.20
2019-04-24T02:14:15.320Z,13.30
2019-04-24T02:16:35.708Z,13.20
2019-04-24T02:19:08.168Z,13.20
2019-04-24T02:21:40.860Z,13.20
2019-04-24T02:24:13.546Z,13.20
2019-04-24T02:39:08.019Z,13.00
2019-04-24T02:44:56.822Z,12.90
2019-04-24T02:50:06.241Z,12.90
2019-04-24T02:53:11.756Z,12.90
2019-04-24T02:56:00.875Z,12.90
2019-04-24T03:02:13.318Z,12.90
2019-04-24T03:13:32.500Z,12.90
2019-04-24T03:16:48.226Z,12.90
2019-04-24T03:25:49.519Z,12.90
2019-04-24T03:28:08.215Z,12.90
2019-04-24T03:31:18.887Z,12.80
2019-04-24T03:33:48.435Z,12.80
2019-04-24T03:46:32.912Z,12.70
2019-04-24T04:00:43.541Z,12.60
2019-04-24T04:06:36.605Z,12.70
2019-04-24T04:09:14.624Z,12.70
2019-04-24T04:12:10.227Z,12.60
2019-04-24T04:26:52.665Z,12.60
2019-04-24T04:35:26.634Z,12.70
2019-04-24T04:38:26.078Z,12.60
2019-04-24T04:46:44.777Z,12.70
2019-04-24T04:52:05.806Z,12.60
2019-04-24T04:57:50.070Z,12.70
2019-04-24T05:01:06.326Z,12.60
2019-04-24T05:13:08.139Z,12.60
2019-04-24T05:14:55.203Z,12.60
2019-04-24T05:17:12.710Z,12.60
2019-04-24T05:24:39.849Z,12.60
2019-04-24T05:29:52.075Z,12.60
2019-04-24T05:33:14.135Z,12.60
2019-04-24T05:42:06.265Z,12.60
2019-04-24T05:44:46.539Z,12.60
2019-04-24T05:48:00.235Z,12.50
2019-04-24T05:51:06.512Z,12.60
2019-04-24T05:53:51.413Z,12.60
2019-04-24T05:59:34.905Z,12.60
2019-04-24T06:08:41.827Z,12.70
2019-04-24T06:11:36.478Z,12.70
2019-04-24T06:24:01.515Z,12.80
2019-04-24T06:31:38.057Z,12.80
2019-04-24T06:34:00.750Z,12.90
2019-04-24T06:37:03.523Z,12.90
2019-04-24T06:40:27.337Z,12.90
2019-04-24T06:45:51.197Z,13.00
2019-04-24T06:48:48.674Z,13.10
2019-04-24T06:54:36.945Z,13.20
2019-04-24T07:00:19.421Z,13.10
2019-04-24T07:02:40.349Z,13.10
2019-04-24T07:05:20.734Z,13.10
2019-04-24T07:13:09.800Z,13.10
2019-04-24T07:16:13.506Z,13.10
2019-04-24T07:19:36.149Z,13.10
2019-04-24T07:22:27.318Z,13.00
2019-04-24T07:25:34.611Z,13.10
2019-04-24T07:28:44.170Z,13.20
2019-04-24T07:31:50.655Z,13.30
2019-04-24T07:35:07.484Z,13.40
2019-04-24T07:41:27.260Z,14.00
2019-04-24T07:43:50.084Z,14.40
2019-04-24T07:46:10.214Z,14.70
2019-04-24T07:48:53.471Z,14.70
2019-04-24T07:51:13.998Z,14.70
2019-04-24T08:05:41.173Z,14.60
2019-04-24T08:08:46.457Z,14.70
2019-04-24T08:14:24.446Z,14.80
2019-04-24T08:17:17.694Z,14.80
2019-04-24T08:20:12.798Z,14.90
2019-04-24T08:22:50.430Z,14.90
2019-04-24T08:31:09.144Z,15.20
2019-04-24T08:36:37.086Z,15.30
2019-04-24T08:45:02.304Z,15.30
2019-04-24T08:48:00.250Z,15.30
2019-04-24T08:58:42.156Z,15.80
2019-04-24T09:01:54.279Z,16.00
2019-04-24T09:04:47.153Z,16.10
2019-04-24T09:07:03.049Z,16.40
2019-04-24T09:10:36.027Z,16.60
2019-04-24T09:13:13.121Z,16.80
2019-04-24T09:15:56.840Z,17.00
2019-04-24T09:18:43.098Z,17.20
2019-04-24T09:20:50.832Z,17.40
2019-04-24T09:26:27.652Z,17.60
2019-04-24T09:29:52.777Z,17.70
2019-04-24T09:33:41.995Z,17.90
2019-04-24T09:38:58.858Z,18.20
2019-04-24T09:42:05.232Z,18.20
2019-04-24T09:44:41.425Z,18.10
2019-04-24T10:02:12.085Z,19.30
2019-04-24T10:04:38.298Z,19.40
2019-04-24T10:19:25.048Z,19.70
2019-04-24T10:22:28.100Z,19.80
2019-04-24T10:28:50.282Z,19.90
2019-04-24T10:31:53.883Z,20.10
2019-04-24T10:34:13.445Z,20.30
2019-04-24T10:37:08.800Z,20.40
2019-04-24T10:43:04.279Z,20.30
2019-04-24T10:46:03.546Z,20.50
2019-04-24T10:48:38.316Z,20.60
2019-04-24T10:51:03.835Z,20.30
2019-04-24T10:53:49.127Z,20.10
2019-04-24T10:56:24.372Z,20.20
2019-04-24T10:58:45.384Z,20.10
2019-04-24T11:01:37.180Z,20.10
2019-04-24T11:04:29.331Z,20.10
2019-04-24T11:07:07.343Z,20.30
2019-04-24T11:09:50.380Z,20.40
2019-04-24T11:12:12.668Z,20.40
2019-04-24T11:14:41.551Z,20.40
2019-04-24T11:23:00.061Z,20.50
2019-04-24T11:26:13.973Z,20.60
2019-04-24T11:29:02.917Z,20.50
2019-04-24T11:35:16.020Z,21.10
2019-04-24T11:37:51.914Z,21.30
2019-04-24T11:43:14.008Z,21.40
2019-04-24T11:46:29.513Z,21.50
2019-04-24T11:48:57.760Z,21.70
2019-04-24T11:54:09.575Z,21.50
2019-04-24T11:59:26.938Z,21.40
2019-04-24T12:06:01.417Z,21.30
2019-04-24T12:08:29.460Z,21.50
2019-04-24T12:14:05.630Z,21.50
2019-04-24T12:19:58.754Z,21.60
2019-04-24T12:22:36.146Z,21.60
2019-04-24T12:25:11.827Z,21.70
2019-04-24T12:27:59.076Z,21.80
2019-04-24T12:30:46.614Z,21.90
2019-04-24T12:33:36.357Z,21.90
2019-04-24T12:36:05.346Z,21.90
2019-04-24T12:44:39.474Z,21.80
2019-04-24T12:50:05.258Z,22.10
2019-04-24T12:52:58.247Z,22.30
2019-04-24T12:55:43.681Z,22.50
2019-04-24T13:01:20.787Z,22.60
2019-04-24T13:04:18.784Z,22.60
2019-04-24T13:06:38.456Z,22.70
2019-04-24T13:12:38.431Z,22.90
2019-04-24T13:15:14.057Z,23.00
2019-04-24T13:17:56.544Z,23.10
2019-04-24T13:19:42.811Z,23.20
2019-04-24T13:22:24.671Z,23.10
2019-04-24T13:25:07.032Z,23.10
2019-04-24T13:28:14.686Z,23.10
2019-04-24T13:33:14.568Z,22.90
2019-04-24T13:35:56.547Z,22.90
2019-04-24T13:38:46.882Z,23.00
2019-04-24T13:41:42.645Z,23.00
2019-04-24T13:44:18.061Z,23.10
2019-04-24T13:47:14.635Z,23.00
2019-04-24T13:53:20.326Z,23.10
2019-04-24T13:55:19.849Z,23.30
2019-04-24T13:58:02.959Z,23.30
2019-04-24T14:11:31.309Z,23.40
2019-04-24T14:20:02.006Z,23.60
2019-04-24T14:23:09.677Z,23.60
2019-04-24T14:31:25.023Z,23.50
2019-04-24T14:34:13.007Z,23.60
2019-04-24T14:36:49.307Z,23.60
2019-04-24T14:42:11.845Z,23.50
2019-04-24T14:50:29.647Z,23.60
2019-04-24T14:53:16.216Z,23.60
2019-04-24T14:55:52.186Z,23.60
2019-04-24T14:58:51.323Z,23.70
2019-04-24T15:01:31.458Z,23.70
2019-04-24T15:03:59.603Z,23.70
2019-04-24T15:06:49.692Z,23.70
2019-04-24T15:14:59.503Z,23.60
2019-04-24T15:20:35.897Z,23.60
2019-04-24T15:25:57.179Z,23.60
2019-04-24T15:28:39.436Z,23.60
2019-04-24T15:31:29.201Z,23.50
2019-04-24T15:34:24.611Z,23.50
2019-04-24T15:51:35.916Z,23.40
2019-04-24T15:54:02.899Z,23.50
2019-04-24T15:56:52.205Z,23.50
2019-04-24T16:00:14.962Z,23.50
2019-04-24T16:08:28.257Z,23.40
2019-04-24T16:14:44.252Z,23.40
2019-04-24T16:26:45.986Z,23.20
2019-04-24T16:29:20.678Z,23.20
2019-04-24T16:34:56.068Z,23.00
2019-04-24T16:46:21.382Z,23.00
2019-04-24T16:48:37.440Z,23.00
2019-04-24T16:51:22.351Z,23.00
2019-04-24T16:54:03.423Z,22.90
2019-04-24T17:05:03.776Z,22.80
2019-04-24T17:07:38.894Z,22.80
2019-04-24T17:10:29.455Z,22.70
2019-04-24T17:13:03.034Z,22.70
2019-04-24T17:15:54.656Z,22.60
2019-04-24T17:18:15.473Z,22.60
2019-04-24T17:21:10.912Z,22.50
2019-04-24T17:26:28.888Z,22.40
2019-04-24T17:29:27.274Z,22.40
2019-04-24T17:32:11.991Z,22.40
2019-04-24T17:34:54.985Z,22.30
2019-04-24T17:36:59.989Z,22.30
2019-04-24T17:39:44.980Z,22.20
2019-04-24T17:42:36.636Z,22.20
2019-04-24T17:48:29.091Z,22.10
2019-04-24T17:51:01.720Z,22.00
2019-04-24T17:53:20.191Z,22.00
2019-04-24T17:55:54.906Z,21.90
2019-04-24T17:57:57.745Z,21.90
2019-04-24T18:00:43.552Z,21.90
2019-04-24T18:03:13.570Z,21.80
2019-04-24T18:05:41.887Z,21.70
2019-04-24T18:08:11.985Z,21.70
2019-04-24T18:10:41.718Z,21.60
2019-04-24T18:13:30.188Z,21.60
2019-04-24T18:19:16.809Z,21.50
2019-04-24T18:30:52.784Z,21.40
2019-04-24T18:33:42.197Z,21.30
2019-04-24T18:36:31.982Z,21.30
2019-04-24T18:39:19.929Z,21.30
2019-04-24T18:45:03.905Z,21.10
2019-04-24T18:47:53.358Z,21.10
2019-04-24T18:50:42.820Z,21.00
2019-04-24T18:53:31.679Z,21.00
2019-04-24T18:56:21.378Z,20.90
2019-04-24T18:59:10.743Z,20.90
2019-04-24T19:02:01.239Z,20.80
2019-04-24T19:04:51.242Z,20.80
2019-04-24T19:07:31.998Z,20.80
2019-04-24T19:10:12.935Z,20.80
2019-04-24T19:12:54.846Z,20.70
2019-04-24T19:15:36.121Z,20.70
2019-04-24T19:18:16.902Z,20.70
2019-04-24T19:20:45.944Z,20.70
2019-04-24T19:23:16.671Z,20.60
2019-04-24T19:29:03.684Z,20.50
2019-04-24T19:31:51.929Z,20.50
2019-04-24T19:34:41.917Z,20.40
2019-04-24T19:37:44.756Z,20.40
2019-04-24T19:40:34.882Z,20.40
2019-04-24T19:42:51.624Z,20.30
2019-04-24T19:45:39.519Z,20.30
2019-04-24T19:51:20.620Z,20.30
2019-04-24T19:54:08.583Z,20.30
2019-04-24T19:56:56.981Z,20.30
2019-04-24T19:59:44.977Z,20.20
2019-04-24T20:05:26.804Z,20.10
2019-04-24T20:08:08.032Z,20.10
2019-04-24T20:10:51.230Z,20.10
2019-04-24T20:13:22.083Z,20.10
2019-04-24T20:15:52.110Z,20.10
2019-04-24T20:18:41.869Z,20.10
2019-04-24T20:24:38.839Z,20.10
2019-04-24T20:27:26.761Z,20.00
2019-04-24T20:30:15.834Z,20.00
2019-04-24T20:33:04.458Z,19.90
2019-04-24T20:35:52.716Z,19.80
2019-04-24T20:38:42.057Z,19.80
2019-04-24T20:41:31.174Z,19.70
2019-04-24T20:44:19.668Z,19.70
2019-04-24T20:47:07.584Z,19.70
2019-04-24T20:49:55.548Z,19.60
2019-04-24T20:55:51.334Z,19.50
2019-04-24T20:58:23.491Z,19.50
2019-04-24T21:00:51.421Z,19.40
2019-04-24T21:03:23.419Z,19.30
2019-04-24T21:06:05.040Z,19.30
2019-04-24T21:08:41.112Z,19.30
2019-04-24T21:11:10.125Z,19.10
2019-04-24T21:13:38.864Z,19.20
2019-04-24T21:16:07.455Z,19.20
2019-04-24T21:18:36.040Z,19.20
2019-04-24T21:21:05.032Z,19.20
2019-04-24T21:23:33.655Z,19.10
2019-04-24T21:26:22.377Z,19.10
2019-04-24T21:29:11.739Z,19.00
2019-04-24T21:31:54.310Z,19.00
2019-04-24T21:34:35.451Z,19.00
2019-04-24T21:37:15.961Z,19.00
2019-04-24T21:39:57.035Z,19.00
2019-04-24T21:42:37.917Z,18.90
2019-04-24T21:45:19.274Z,18.90
2019-04-24T21:47:59.990Z,18.90
2019-04-24T21:50:42.724Z,18.90
2019-04-24T21:53:24.594Z,18.90
2019-04-24T21:56:05.664Z,18.80
2019-04-24T21:58:46.876Z,18.80
2019-04-24T22:07:21.828Z,18.70
2019-04-24T22:10:02.766Z,18.70
2019-04-24T22:12:44.133Z,18.60
2019-04-24T22:15:25.573Z,18.60
2019-04-24T22:18:07.116Z,18.50
2019-04-24T22:20:51.495Z,18.50
2019-04-24T22:23:51.836Z,18.40
2019-04-24T22:29:26.718Z,18.40
2019-04-24T22:35:03.143Z,18.30
2019-04-24T22:37:44.294Z,18.20
2019-04-24T22:40:44.624Z,18.20
2019-04-24T22:43:25.864Z,18.10
2019-04-24T22:46:06.408Z,18.00
2019-04-24T22:48:47.539Z,18.00
2019-04-24T22:51:39.361Z,18.00
2019-04-24T22:54:07.984Z,17.90
2019-04-24T22:56:45.448Z,17.90
2019-04-24T22:59:06.876Z,17.80
2019-04-24T23:02:00.025Z,17.70
2019-04-24T23:04:44.607Z,17.70
2019-04-24T23:07:32.620Z,17.70
2019-04-24T23:10:13.713Z,17.70
2019-04-24T23:12:54.811Z,17.70
2019-04-24T23:15:35.581Z,17.60
2019-04-24T23:18:16.615Z,17.60
2019-04-24T23:20:58.789Z,17.60
2019-04-24T23:23:58.833Z,17.60
2019-04-24T23:26:41.276Z,17.50
2019-04-24T23:29:24.214Z,17.50
2019-04-24T23:32:06.996Z,17.40
2019-04-24T23:34:51.258Z,17.30
2019-04-24T23:37:31.715Z,17.10
2019-04-24T23:40:13.072Z,16.90
2019-04-24T23:42:54.192Z,16.70
2019-04-24T23:45:35.011Z,16.60
2019-04-24T23:48:15.920Z,16.50
2019-04-24T23:50:56.689Z,16.30
2019-04-24T23:53:38.073Z,16.10
2019-04-24T23:56:19.341Z,16.00
2019-04-24T23:59:00.088Z,15.80
